Observation data for Brownfield on 11/21/2019      Previous  Date       Current Mesonet Observations  Soil Data  Daily Summary Page  Observations in Plain Language
KBWS 210600Z 19010KT 14/13 A2994 RMK A01 T01370129  RH  099%=      5-min Rain = 0
KBWS 210605Z 19010KT 14/13 A2995 RMK A01 T01370129  RH  099%=      5-min Rain = 0
KBWS 210610Z 20007KT 14/13 A2995 RMK A01 T01370129  RH  099%=      5-min Rain = 0
KBWS 210615Z 19007KT 14/13 A2994 RMK A01 T01370129  RH  099%=      5-min Rain = 0
KBWS 210620Z 20010KT 14/13 A2994 RMK A01 T01370129  RH  099%=      5-min Rain = 0
KBWS 210625Z 20010KT 14/13 A2994 RMK A01 T01360129  RH  099%=      5-min Rain = 0
KBWS 210630Z 20011KT 14/13 A2994 RMK A01 T01360128  RH  099%=      5-min Rain = 0
KBWS 210635Z 19010KT 14/13 A2994 RMK A01 T01350128  RH  099%=      5-min Rain = 0
KBWS 210640Z 19010KT 14/13 A2994 RMK A01 T01360128  RH  099%=      5-min Rain = 0
KBWS 210645Z 19008KT 14/13 A2994 RMK A01 T01360128  RH  099%=      5-min Rain = 0
KBWS 210650Z 18010KT 14/13 A2994 RMK A01 T01350128  RH  099%=      5-min Rain = 0
KBWS 210655Z 20010KT 14/13 A2994 RMK A01 T01350128  RH  099%=      5-min Rain = 0
KBWS 210700Z 20009KT 14/13 A2994 RMK A01 T01350128  RH  099%=      5-min Rain = 0
KBWS 210705Z 20007KT 14/13 A2994 RMK A01 T01350128  RH  099%=      5-min Rain = 0
KBWS 210710Z 20008KT 14/13 A2994 RMK A01 T01350128  RH  099%=      5-min Rain = 0
KBWS 210715Z 18009KT 13/13 A2994 RMK A01 T01340127  RH  099%=      5-min Rain = 0
KBWS 210720Z 18008KT 14/13 A2994 RMK A01 T01350128  RH  100%=      5-min Rain = 0
KBWS 210725Z 18009KT 13/13 A2994 RMK A01 T01340127  RH  100%=      5-min Rain = 0
KBWS 210730Z 18009KT 13/13 A2994 RMK A01 T01330127  RH  100%=      5-min Rain = 0
KBWS 210735Z 19008KT 13/13 A2993 RMK A01 T01340127  RH  100%=      5-min Rain = 0
KBWS 210740Z 19010KT 13/13 A2993 RMK A01 T01340127  RH  100%=      5-min Rain = 0
KBWS 210745Z 19010KT 13/13 A2993 RMK A01 T01340127  RH  100%=      5-min Rain = 0
KBWS 210750Z 19007KT 13/13 A2993 RMK A01 T01340128  RH  100%=      5-min Rain = 0
KBWS 210755Z 19005KT 14/13 A2993 RMK A01 T01350128  RH  100%=      5-min Rain = 0
KBWS 210800Z 19007KT 13/13 A2994 RMK A01 T01340128  RH  100%=      5-min Rain = 0
KBWS 210805Z 20008KT 13/13 A2994 RMK A01 T01340127  RH  100%=      5-min Rain = 0
KBWS 210810Z 20008KT 13/13 A2994 RMK A01 T01340127  RH  100%=      5-min Rain = 0
KBWS 210815Z 20008KT 13/13 A2993 RMK A01 T01330127  RH  100%=      5-min Rain = 0
KBWS 210820Z 20008KT 13/13 A2994 RMK A01 T01330127  RH  100%=      5-min Rain = 0
KBWS 210825Z 20009KT 13/13 A2994 RMK A01 T01330127  RH  100%=      5-min Rain = 0
KBWS 210830Z 20008KT 13/13 A2994 RMK A01 T01330127  RH  100%=      5-min Rain = 0
KBWS 210835Z 20008KT 13/13 A2994 RMK A01 T01320126  RH  100%=      5-min Rain = 0
KBWS 210840Z 20008KT 13/13 A2993 RMK A01 T01330127  RH  100%=      5-min Rain = 0
KBWS 210845Z 20007KT 13/13 A2993 RMK A01 T01320126  RH  100%=      5-min Rain = 0
KBWS 210850Z 19005KT 13/13 A2993 RMK A01 T01320127  RH  100%=      5-min Rain = 0
KBWS 210855Z 19004KT 13/13 A2993 RMK A01 T01320126  RH  100%=      5-min Rain = 0
KBWS 210900Z 20006KT 13/13 A2993 RMK A01 T01330127  RH  100%=      5-min Rain = 0
KBWS 210905Z 19007KT 13/13 A2993 RMK A01 T01320127  RH  100%=      5-min Rain = 0
KBWS 210910Z 19006KT 13/13 A2993 RMK A01 T01320126  RH  100%=      5-min Rain = 0
KBWS 210915Z 18007KT 13/13 A2993 RMK A01 T01320126  RH  100%=      5-min Rain = 0
KBWS 210920Z 18005KT 13/13 A2992 RMK A01 T01330127  RH  100%=      5-min Rain = 0
KBWS 210925Z 17007KT 13/13 A2993 RMK A01 T01320126  RH  100%=      5-min Rain = 0
KBWS 210930Z 19006KT 13/13 A2992 RMK A01 T01320126  RH  100%=      5-min Rain = 0
KBWS 210935Z 17005KT 13/13 A2993 RMK A01 T01320127  RH  100%=      5-min Rain = 0
KBWS 210940Z 16004KT 13/13 A2993 RMK A01 T01310126  RH  100%=      5-min Rain = 0
KBWS 210945Z 16004KT 13/13 A2993 RMK A01 T01310126  RH  100%=      5-min Rain = 0
KBWS 210950Z 16003KT 13/13 A2993 RMK A01 T01310126  RH  100%=      5-min Rain = 0
KBWS 210955Z 16004KT 13/13 A2993 RMK A01 T01310125  RH  100%=      5-min Rain = 0
KBWS 211000Z 18004KT 13/13 A2993 RMK A01 T01310126  RH  100%=      5-min Rain = 0
KBWS 211005Z 14003KT 13/13 A2993 RMK A01 T01310126  RH  100%=      5-min Rain = 0
KBWS 211010Z 13005KT 13/13 A2993 RMK A01 T01310126  RH  100%=      5-min Rain = 0
KBWS 211015Z 16004KT 13/13 A2993 RMK A01 T01310125  RH  100%=      5-min Rain = 0
KBWS 211020Z 17005KT 13/13 A2994 RMK A01 T01310126  RH  100%=      5-min Rain = 0
KBWS 211025Z 14004KT 13/13 A2994 RMK A01 T01320126  RH  100%=      5-min Rain = 0
KBWS 211030Z 15004KT 13/13 A2993 RMK A01 T01320126  RH  100%=      5-min Rain = 0
KBWS 211035Z 17003KT 13/13 A2993 RMK A01 T01320126  RH  100%=      5-min Rain = 0
KBWS 211040Z 14005KT 13/13 A2993 RMK A01 T01320127  RH  100%=      5-min Rain = 0
KBWS 211045Z 13005KT 13/13 A2993 RMK A01 T01330127  RH  100%=      5-min Rain = 0
KBWS 211050Z 13005KT 13/13 A2993 RMK A01 T01330127  RH  100%=      5-min Rain = 0
KBWS 211055Z 12004KT 13/13 A2992 RMK A01 T01330127  RH  100%=      5-min Rain = 0
KBWS 211100Z 11004KT 13/13 A2992 RMK A01 T01330127  RH  100%=      5-min Rain = 0
KBWS 211105Z 13004KT 13/13 A2992 RMK A01 T01330128  RH  100%=      5-min Rain = 0
KBWS 211110Z 14004KT 13/13 A2992 RMK A01 T01330128  RH  100%=      5-min Rain = 0
KBWS 211115Z 17002KT 13/13 A2992 RMK A01 T01330128  RH  100%=      5-min Rain = 0
KBWS 211120Z 14002KT 13/13 A2993 RMK A01 T01330128  RH  100%=      5-min Rain = 0
KBWS 211125Z 14002KT 13/13 A2993 RMK A01 T01340128  RH  100%=      5-min Rain = 0
KBWS 211130Z 10001KT 13/13 A2993 RMK A01 T01340128  RH  100%=      5-min Rain = 0
KBWS 211135Z 01001KT 13/13 A2993 RMK A01 T01330128  RH  100%=      5-min Rain = 0
KBWS 211140Z 03001KT 13/13 A2993 RMK A01 T01330127  RH  100%=      5-min Rain = 0
KBWS 211145Z 03001KT 13/13 A2993 RMK A01 T01330128  RH  100%=      5-min Rain = 0
KBWS 211150Z 05002KT 13/13 A2993 RMK A01 T01330128  RH  100%=      5-min Rain = 0
KBWS 211155Z 07002KT 13/13 A2993 RMK A01 T01320126  RH  100%=      5-min Rain = 0
KBWS 211200Z 08002KT 13/13 A2993 RMK A01 T01330127  RH  100%=      5-min Rain = 0
KBWS 211205Z 08003KT 13/13 A2993 RMK A01 T01330128  RH  100%=      5-min Rain = 0
KBWS 211210Z 08003KT 13/13 A2993 RMK A01 T01340128  RH  100%=      5-min Rain = 0
KBWS 211215Z 07003KT 13/13 A2994 RMK A01 T01330128  RH  100%=      5-min Rain = 0
KBWS 211220Z 05003KT 13/13 A2994 RMK A01 T01320126  RH  100%=      5-min Rain = 0
KBWS 211225Z 03003KT 13/13 A2994 RMK A01 T01330127  RH  100%=      5-min Rain = 0
KBWS 211230Z 05004KT 13/13 A2994 RMK A01 T01330127  RH  100%=      5-min Rain = 0
KBWS 211235Z 05004KT 13/13 A2994 RMK A01 T01320127  RH  100%=      5-min Rain = 0
KBWS 211240Z 03003KT 13/13 A2994 RMK A01 T01330128  RH  100%=      5-min Rain = 0
KBWS 211245Z 01003KT 13/13 A2994 RMK A01 T01340128  RH  100%=      5-min Rain = 0
KBWS 211250Z 36003KT 13/13 A2994 RMK A01 T01340128  RH  100%=      5-min Rain = 0
KBWS 211255Z 35002KT 13/13 A2994 RMK A01 T01340128  RH  100%=      5-min Rain = 0
KBWS 211300Z 02003KT 13/13 A2994 RMK A01 T01340128  RH  100%=      5-min Rain = 0
KBWS 211305Z 04004KT 13/13 A2994 RMK A01 T01330128  RH  100%=      5-min Rain = 0
KBWS 211310Z 06004KT 13/13 A2994 RMK A01 T01330127  RH  100%=      5-min Rain = 0
KBWS 211315Z 06004KT 13/13 A2995 RMK A01 T01320126  RH  100%=      5-min Rain = 0
KBWS 211320Z 05005KT 13/13 A2995 RMK A01 T01330127  RH  100%=      5-min Rain = 0
KBWS 211325Z 03005KT 13/13 A2996 RMK A01 T01340128  RH  100%=      5-min Rain = 0
KBWS 211330Z 02004KT 13/13 A2996 RMK A01 T01340128  RH  100%=      5-min Rain = 0
KBWS 211335Z 03005KT 14/13 A2996 RMK A01 T01350129  RH  100%=      5-min Rain = 0
KBWS 211340Z 04004KT 13/13 A2996 RMK A01 T01340128  RH  100%=      5-min Rain = 0
KBWS 211345Z 04004KT 14/13 A2996 RMK A01 T01350129  RH  100%=      5-min Rain = 0
KBWS 211350Z 04005KT 14/13 A2996 RMK A01 T01350129  RH  100%=      5-min Rain = 0
KBWS 211355Z 04005KT 13/13 A2996 RMK A01 T01340129  RH  100%=      5-min Rain = 0
KBWS 211400Z 03006KT 13/13 A2996 RMK A01 T01340128  RH  100%=      5-min Rain = 0
KBWS 211405Z 02006KT 13/13 A2997 RMK A01 T01330128  RH  100%=      5-min Rain = 0
KBWS 211410Z 03006KT 13/13 A2997 RMK A01 T01330127  RH  100%=      5-min Rain = 0
KBWS 211415Z 02007KT 13/13 A2997 RMK A01 T01310126  RH  100%=      5-min Rain = 0
KBWS 211420Z 02008KT 13/12 A2997 RMK A01 T01300124  RH  100%=      5-min Rain = 0
KBWS 211425Z 02009KT 13/12 A2998 RMK A01 T01290123  RH  100%=      5-min Rain = 0
KBWS 211430Z 02007KT 13/12 A2998 RMK A01 T01280122  RH  100%=      5-min Rain = 0
KBWS 211435Z 02008G13KT 13/12 A2998 RMK A01 T01280122  RH  100%=      5-min Rain = 0
KBWS 211440Z 02010KT 13/12 A2998 RMK A01 T01270121  RH  100%=      5-min Rain = 0
KBWS 211445Z 02009KT 13/12 A2998 RMK A01 T01250120  RH  100%=      5-min Rain = 0
KBWS 211450Z 00012G17KT 12/11 A2999 RMK A01 T01160111  RH  100%=      5-min Rain = 0
KBWS 211455Z 01013KT 10/09 A2999 RMK A01 T00960092  RH  100%=      5-min Rain = 0
KBWS 211500Z 01013G19KT 09/08 A2999 RMK A01 T00870083  RH  100%=      5-min Rain = 0
KBWS 211505Z 02013KT 08/08 A2999 RMK A01 T00840080  RH  100%=      5-min Rain = 0
KBWS 211510Z 01012KT 08/08 A2999 RMK A01 T00800076  RH  100%=      5-min Rain = 0
KBWS 211515Z 00013KT 08/07 A2999 RMK A01 T00780074  RH  100%=      5-min Rain = 0
KBWS 211520Z 01011G16KT 08/07 A30 RMK A01 T00760072  RH  100%=      5-min Rain = 0
KBWS 211525Z 01012G17KT 08/07 A30 RMK A01 T00750071  RH  100%=      5-min Rain = 0
KBWS 211530Z 02012G17KT 07/07 A30 RMK A01 T00730069  RH  100%=      5-min Rain = 0
KBWS 211535Z 01012KT 07/07 A30 RMK A01 T00710067  RH  100%=      5-min Rain = 0
KBWS 211540Z 00011KT 07/07 A3001 RMK A01 T00680065  RH  100%=      5-min Rain = 0
KBWS 211545Z 01013G18KT 07/06 A3001 RMK A01 T00660062  RH  100%=      5-min Rain = 0
KBWS 211550Z 01013KT 07/06 A3001 RMK A01 T00650062  RH  100%=      5-min Rain = 0
KBWS 211555Z 01012KT 07/06 A3001 RMK A01 T00660062  RH  100%=      5-min Rain = 0
KBWS 211600Z 02012KT 06/06 A3001 RMK A01 T00630060  RH  100%=      5-min Rain = 0
KBWS 211605Z 02013KT 06/06 A3001 RMK A01 T00620059  RH  100%=      5-min Rain = 0
KBWS 211610Z 01012KT 06/06 A3001 RMK A01 T00630059  RH  100%=      5-min Rain = 0
KBWS 211615Z 02012KT 06/06 A30 RMK A01 T00640061  RH  100%=      5-min Rain = 0
KBWS 211620Z 02013KT 06/06 A3001 RMK A01 T00640061  RH  100%=      5-min Rain = 0
KBWS 211625Z 01012KT 06/06 A3001 RMK A01 T00640061  RH  100%=      5-min Rain = 0
KBWS 211630Z 02011KT 07/06 A3001 RMK A01 T00650061  RH  100%=      5-min Rain = 0
KBWS 211635Z 01011KT 07/06 A3001 RMK A01 T00650061  RH  100%=      5-min Rain = 0
KBWS 211640Z 01010KT 07/06 A3001 RMK A01 T00660063  RH  100%=      5-min Rain = 0
KBWS 211645Z 01010KT 07/06 A3001 RMK A01 T00660063  RH  100%=      5-min Rain = 0
KBWS 211650Z 02012KT 07/06 A3002 RMK A01 T00650061  RH  100%=      5-min Rain = 0
KBWS 211655Z 02012KT 07/06 A3001 RMK A01 T00650062  RH  100%=      5-min Rain = 0
KBWS 211700Z 02014KT 07/06 A30 RMK A01 T00670063  RH  100%=      5-min Rain = 0
KBWS 211705Z 02014KT 07/06 A30 RMK A01 T00660062  RH  100%=      5-min Rain = 0
KBWS 211710Z 02013KT 07/06 A30 RMK A01 T00660062  RH  100%=      5-min Rain = 0
KBWS 211715Z 03011G16KT 07/06 A30 RMK A01 T00670063  RH  100%=      5-min Rain = 0
KBWS 211720Z 03012KT 07/06 A30 RMK A01 T00660062  RH  100%=      5-min Rain = 0
KBWS 211725Z 03012KT 07/06 A30 RMK A01 T00680063  RH  100%=      5-min Rain = 0
KBWS 211730Z 04012KT 07/06 A30 RMK A01 T00670063  RH  099%=      5-min Rain = 0
KBWS 211735Z 04014KT 07/07 A2999 RMK A01 T00700065  RH  099%=      5-min Rain = 0
KBWS 211740Z 05013KT 07/07 A2999 RMK A01 T00710066  RH  099%=      5-min Rain = 0
KBWS 211745Z 05013KT 07/07 A2999 RMK A01 T00720067  RH  099%=      5-min Rain = 0
KBWS 211750Z 05012KT 07/06 A2999 RMK A01 T00700064  RH  099%=      5-min Rain = 0
KBWS 211755Z 04013KT 07/06 A2999 RMK A01 T00700064  RH  098%=      5-min Rain = 0
KBWS 211800Z 04012KT 07/06 A2999 RMK A01 T00690062  RH  098%=      5-min Rain = 0
KBWS 211805Z 04011KT 07/06 A2999 RMK A01 T00710064  RH  098%=      5-min Rain = 0
KBWS 211810Z 04012KT 07/06 A2999 RMK A01 T00710063  RH  097%=      5-min Rain = 0
KBWS 211815Z 04011KT 07/06 A2998 RMK A01 T00720064  RH  097%=      5-min Rain = 0
KBWS 211820Z 04012KT 07/06 A2998 RMK A01 T00710061  RH  096%=      5-min Rain = 0
KBWS 211825Z 05012KT 07/06 A2998 RMK A01 T00720061  RH  095%=      5-min Rain = 0
KBWS 211830Z 03010KT 07/06 A2998 RMK A01 T00720060  RH  094%=      5-min Rain = 0
KBWS 211835Z 04009KT 07/06 A2998 RMK A01 T00730061  RH  094%=      5-min Rain = 0
KBWS 211840Z 04011KT 07/06 A2998 RMK A01 T00740061  RH  094%=      5-min Rain = 0
KBWS 211845Z 04010KT 07/06 A2998 RMK A01 T00730060  RH  094%=      5-min Rain = 0
KBWS 211850Z 04010KT 08/06 A2998 RMK A01 T00750061  RH  094%=      5-min Rain = 0
KBWS 211855Z 04010KT 07/06 A2997 RMK A01 T00740061  RH  093%=      5-min Rain = 0
KBWS 211900Z 04012KT 07/06 A2997 RMK A01 T00740060  RH  093%=      5-min Rain = 0
KBWS 211905Z 04008KT 07/06 A2997 RMK A01 T00740061  RH  094%=      5-min Rain = 0
KBWS 211910Z 05010KT 08/06 A2997 RMK A01 T00750061  RH  093%=      5-min Rain = 0
KBWS 211915Z 03010KT 07/06 A2996 RMK A01 T00740062  RH  094%=      5-min Rain = 0
KBWS 211920Z 03011KT 08/06 A2996 RMK A01 T00750063  RH  094%=      5-min Rain = 0
KBWS 211925Z 05011KT 07/06 A2996 RMK A01 T00740062  RH  095%=      5-min Rain = 0
KBWS 211930Z 04011KT 07/06 A2995 RMK A01 T00740063  RH  095%=      5-min Rain = 0
KBWS 211935Z 04010KT 08/06 A2995 RMK A01 T00750064  RH  095%=      5-min Rain = 0
KBWS 211940Z 03011KT 08/07 A2994 RMK A01 T00760065  RH  095%=      5-min Rain = 0
KBWS 211945Z 04011KT 08/06 A2994 RMK A01 T00760064  RH  095%=      5-min Rain = 0
KBWS 211950Z 04011KT 08/06 A2994 RMK A01 T00760064  RH  095%=      5-min Rain = 0
KBWS 211955Z 04012KT 08/06 A2994 RMK A01 T00750064  RH  095%=      5-min Rain = 0
KBWS 212000Z 05012KT 07/06 A2993 RMK A01 T00740063  RH  095%=      5-min Rain = 0
KBWS 212005Z 05012KT 07/06 A2993 RMK A01 T00740063  RH  095%=      5-min Rain = 0
KBWS 212010Z 05012KT 07/06 A2993 RMK A01 T00740063  RH  095%=      5-min Rain = 0
KBWS 212015Z 04011KT 07/06 A2993 RMK A01 T00740063  RH  095%=      5-min Rain = 0
KBWS 212020Z 04012KT 07/06 A2993 RMK A01 T00730062  RH  095%=      5-min Rain = 0
KBWS 212025Z 04012KT 07/06 A2994 RMK A01 T00720061  RH  095%=      5-min Rain = 0
KBWS 212030Z 04011KT 07/06 A2994 RMK A01 T00720061  RH  095%=      5-min Rain = 0
KBWS 212035Z 04012KT 07/06 A2994 RMK A01 T00720061  RH  095%=      5-min Rain = 0
KBWS 212040Z 04012KT 07/06 A2994 RMK A01 T00710060  RH  095%=      5-min Rain = 0
KBWS 212045Z 03011KT 07/06 A2994 RMK A01 T00720062  RH  095%=      5-min Rain = 0
KBWS 212050Z 04013KT 07/06 A2993 RMK A01 T00720060  RH  094%=      5-min Rain = 0
KBWS 212055Z 04013KT 07/06 A2993 RMK A01 T00700059  RH  095%=      5-min Rain = 0
KBWS 212100Z 04013KT 07/06 A2993 RMK A01 T00700059  RH  095%=      5-min Rain = 0
KBWS 212105Z 04013KT 07/06 A2993 RMK A01 T00690059  RH  095%=      5-min Rain = 0
KBWS 212110Z 04013KT 07/06 A2993 RMK A01 T00690059  RH  095%=      5-min Rain = 0
KBWS 212115Z 05013KT 07/06 A2993 RMK A01 T00700059  RH  095%=      5-min Rain = 0
KBWS 212120Z 04011KT 07/06 A2994 RMK A01 T00710060  RH  095%=      5-min Rain = 0
KBWS 212125Z 04012KT 07/06 A2994 RMK A01 T00700059  RH  095%=      5-min Rain = 0
KBWS 212130Z 04013KT 07/06 A2994 RMK A01 T00690057  RH  094%=      5-min Rain = 0
KBWS 212135Z 05013KT 07/06 A2993 RMK A01 T00690057  RH  094%=      5-min Rain = 0
KBWS 212140Z 05012KT 07/06 A2993 RMK A01 T00700058  RH  094%=      5-min Rain = 0
KBWS 212145Z 05012KT 07/06 A2992 RMK A01 T00700056  RH  093%=      5-min Rain = 0
KBWS 212150Z 05013KT 07/06 A2992 RMK A01 T00700056  RH  093%=      5-min Rain = 0
KBWS 212155Z 06013KT 07/06 A2992 RMK A01 T00710056  RH  093%=      5-min Rain = 0
KBWS 212200Z 06011KT 07/06 A2992 RMK A01 T00710057  RH  093%=      5-min Rain = 0
KBWS 212205Z 06013KT 07/06 A2992 RMK A01 T00700055  RH  092%=      5-min Rain = 0
KBWS 212210Z 05012KT 07/06 A2992 RMK A01 T00710056  RH  092%=      5-min Rain = 0
KBWS 212215Z 06012KT 07/06 A2992 RMK A01 T00710055  RH  092%=      5-min Rain = 0
KBWS 212220Z 06012KT 07/06 A2992 RMK A01 T00700055  RH  092%=      5-min Rain = 0
KBWS 212225Z 06012KT 07/05 A2993 RMK A01 T00700054  RH  092%=      5-min Rain = 0
KBWS 212230Z 06011KT 07/06 A2993 RMK A01 T00710055  RH  092%=      5-min Rain = 0
KBWS 212235Z 06011KT 07/06 A2993 RMK A01 T00720056  RH  092%=      5-min Rain = 0
KBWS 212240Z 06011KT 07/06 A2993 RMK A01 T00710056  RH  092%=      5-min Rain = 0
KBWS 212245Z 06009KT 07/06 A2994 RMK A01 T00720057  RH  092%=      5-min Rain = 0
KBWS 212250Z 05009KT 07/06 A2994 RMK A01 T00730056  RH  092%=      5-min Rain = 0
KBWS 212255Z 05011KT 07/06 A2995 RMK A01 T00710056  RH  092%=      5-min Rain = 0
KBWS 212300Z 05010KT 07/06 A2994 RMK A01 T00700057  RH  094%=      5-min Rain = 0
KBWS 212305Z 06010KT 07/06 A2995 RMK A01 T00700058  RH  094%=      5-min Rain = 0
KBWS 212310Z 05011KT 07/06 A2995 RMK A01 T00680058  RH  095%=      5-min Rain = 0
KBWS 212315Z 05010KT 07/06 A2995 RMK A01 T00690059  RH  096%=      5-min Rain = 0
KBWS 212320Z 05010KT 07/06 A2996 RMK A01 T00680058  RH  095%=      5-min Rain = 0
KBWS 212325Z 05011KT 07/06 A2996 RMK A01 T00680058  RH  095%=      5-min Rain = 0
KBWS 212330Z 06012KT 07/06 A2995 RMK A01 T00670058  RH  096%=      5-min Rain = 0
KBWS 212335Z 06010KT 07/06 A2996 RMK A01 T00670058  RH  096%=      5-min Rain = 0
KBWS 212340Z 06011KT 07/06 A2995 RMK A01 T00670059  RH  097%=      5-min Rain = 0
KBWS 212345Z 07012KT 07/06 A2995 RMK A01 T00670059  RH  097%=      5-min Rain = 0
KBWS 212350Z 07011KT 07/06 A2996 RMK A01 T00660058  RH  097%=      5-min Rain = 0
KBWS 212355Z 07011KT 07/06 A2995 RMK A01 T00650058  RH  098%=      5-min Rain = 0
KBWS 220000Z 08011KT 07/06 A2995 RMK A01 T00650058  RH  098%=      5-min Rain = 0
KBWS 220005Z 08011KT 06/06 A2996 RMK A01 T00630057  RH  098%=      5-min Rain = 0
KBWS 220010Z 07010KT 06/06 A2996 RMK A01 T00640058  RH  098%=      5-min Rain = 0
KBWS 220015Z 08011KT 06/06 A2996 RMK A01 T00620057  RH  099%=      5-min Rain = 0
KBWS 220020Z 08012KT 06/06 A2996 RMK A01 T00620057  RH  099%=      5-min Rain = 0
KBWS 220025Z 08012G17KT 06/06 A2996 RMK A01 T00620057  RH  099%=      5-min Rain = 0
KBWS 220030Z 06011KT 06/06 A2997 RMK A01 T00620057  RH  099%=      5-min Rain = 0
KBWS 220035Z 06011KT 06/06 A2997 RMK A01 T00620057  RH  099%=      5-min Rain = 0
KBWS 220040Z 05012KT 06/06 A2998 RMK A01 T00610056  RH  099%=      5-min Rain = 0
KBWS 220045Z 05012KT 06/06 A2998 RMK A01 T00610056  RH  099%=      5-min Rain = 0
KBWS 220050Z 06012KT 06/06 A2998 RMK A01 T00610057  RH  099%=      5-min Rain = 0
KBWS 220055Z 06012KT 06/06 A2998 RMK A01 T00610056  RH  099%=      5-min Rain = 0
KBWS 220100Z 07011KT 06/06 A2998 RMK A01 T00600056  RH  099%=      5-min Rain = 0
KBWS 220105Z 06012KT 06/06 A2998 RMK A01 T00590055  RH  099%=      5-min Rain = 0
KBWS 220110Z 06013KT 06/06 A2999 RMK A01 T00590055  RH  100%=      5-min Rain = 0
KBWS 220115Z 06011KT 06/06 A2999 RMK A01 T00590055  RH  100%=      5-min Rain = 0
KBWS 220120Z 05012KT 06/05 A30 RMK A01 T00580054  RH  100%=      5-min Rain = 0
KBWS 220125Z 06011KT 06/05 A30 RMK A01 T00570054  RH  100%=      5-min Rain = 0
KBWS 220130Z 05012KT 06/05 A3001 RMK A01 T00570054  RH  100%=      5-min Rain = 0
KBWS 220135Z 01011G17KT 06/05 A3003 RMK A01 T00570053  RH  100%=      5-min Rain = 0
KBWS 220140Z 32017G23KT 06/06 A3009 RMK A01 T00580055  RH  100%=      5-min Rain = 0
KBWS 220145Z 34013G18KT 06/06 A3008 RMK A01 T00580055  RH  100%=      5-min Rain = 0
KBWS 220150Z 34012G17KT 06/06 A3008 RMK A01 T00590056  RH  100%=      5-min Rain = 0
KBWS 220155Z 35011G16KT 06/06 A3008 RMK A01 T00600057  RH  100%=      5-min Rain = 0
KBWS 220200Z 35010G15KT 06/06 A3007 RMK A01 T00610057  RH  100%=      5-min Rain = 0.01
KBWS 220205Z 36011KT 06/06 A3007 RMK A01 T00610058  RH  100%=      5-min Rain = 0
KBWS 220210Z 36015G21KT 06/06 A3007 RMK A01 T00610057  RH  100%=      5-min Rain = 0
KBWS 220215Z 36014G20KT 06/06 A3007 RMK A01 T00600056  RH  100%=      5-min Rain = 0
KBWS 220220Z 36012G17KT 06/06 A3007 RMK A01 T00600056  RH  099%=      5-min Rain = 0
KBWS 220225Z 00013G18KT 06/06 A3007 RMK A01 T00590055  RH  099%=      5-min Rain = 0
KBWS 220230Z 01015G22KT 06/05 A3007 RMK A01 T00580053  RH  098%=      5-min Rain = 0
KBWS 220235Z 01013G19KT 06/05 A3008 RMK A01 T00580052  RH  098%=      5-min Rain = 0
KBWS 220240Z 01013KT 06/05 A3008 RMK A01 T00580051  RH  097%=      5-min Rain = 0
KBWS 220245Z 01013G18KT 06/05 A3009 RMK A01 T00580050  RH  096%=      5-min Rain = 0
KBWS 220250Z 01012KT 06/05 A3008 RMK A01 T00590050  RH  096%=      5-min Rain = 0
KBWS 220255Z 00011G18KT 06/05 A3009 RMK A01 T00590050  RH  096%=      5-min Rain = 0
KBWS 220300Z 01012G18KT 06/05 A3009 RMK A01 T00590049  RH  096%=      5-min Rain = 0
KBWS 220305Z 02014KT 06/05 A3008 RMK A01 T00580048  RH  095%=      5-min Rain = 0
KBWS 220310Z 03014G21KT 06/05 A3008 RMK A01 T00580047  RH  095%=      5-min Rain = 0
KBWS 220315Z 03016KT 06/05 A3008 RMK A01 T00570045  RH  094%=      5-min Rain = 0
KBWS 220320Z 02015KT 06/04 A3007 RMK A01 T00560044  RH  094%=      5-min Rain = 0
KBWS 220325Z 03014G19KT 06/04 A3007 RMK A01 T00560044  RH  094%=      5-min Rain = 0
KBWS 220330Z 03012KT 06/04 A3008 RMK A01 T00560044  RH  094%=      5-min Rain = 0
KBWS 220335Z 02014G20KT 06/04 A3008 RMK A01 T00550043  RH  094%=      5-min Rain = 0
KBWS 220340Z 02013KT 06/04 A3009 RMK A01 T00550043  RH  094%=      5-min Rain = 0
KBWS 220345Z 02013KT 05/04 A3011 RMK A01 T00540042  RH  094%=      5-min Rain = 0
KBWS 220350Z 01012KT 05/04 A3011 RMK A01 T00530041  RH  094%=      5-min Rain = 0
KBWS 220355Z 01009G14KT 05/04 A3012 RMK A01 T00530042  RH  094%=      5-min Rain = 0
KBWS 220400Z 01011KT 05/04 A3012 RMK A01 T00530042  RH  094%=      5-min Rain = 0
KBWS 220405Z 00012G17KT 05/04 A3012 RMK A01 T00510040  RH  094%=      5-min Rain = 0
KBWS 220410Z 00014KT 05/04 A3012 RMK A01 T00500038  RH  094%=      5-min Rain = 0
KBWS 220415Z 00011KT 05/04 A3011 RMK A01 T00500038  RH  094%=      5-min Rain = 0.01
KBWS 220420Z 36011KT 05/04 A3011 RMK A01 T00490038  RH  094%=      5-min Rain = 0
KBWS 220425Z 36013G18KT 05/04 A3011 RMK A01 T00480037  RH  095%=      5-min Rain = 0
KBWS 220430Z 00014KT 05/04 A301 RMK A01 T00470035  RH  094%=      5-min Rain = 0
KBWS 220435Z 36015KT 05/04 A301 RMK A01 T00460035  RH  094%=      5-min Rain = 0
KBWS 220440Z 35013G18KT 05/03 A301 RMK A01 T00450034  RH  094%=      5-min Rain = 0
KBWS 220445Z 35013KT 05/03 A3011 RMK A01 T00450034  RH  094%=      5-min Rain = 0
KBWS 220450Z 35010KT 05/03 A3011 RMK A01 T00460034  RH  094%=      5-min Rain = 0
KBWS 220455Z 35010KT 05/04 A3011 RMK A01 T00460035  RH  094%=      5-min Rain = 0
KBWS 220500Z 00011KT 05/03 A3011 RMK A01 T00460034  RH  094%=      5-min Rain = 0.01
KBWS 220505Z 36009G14KT 05/03 A301 RMK A01 T00450034  RH  094%=      5-min Rain = 0.01
KBWS 220510Z 01014G20KT 05/03 A3008 RMK A01 T00450034  RH  095%=      5-min Rain = 0
KBWS 220515Z 00014G19KT 04/03 A3009 RMK A01 T00440034  RH  095%=      5-min Rain = 0
KBWS 220520Z 00010KT 04/04 A301 RMK A01 T00440035  RH  095%=      5-min Rain = 0.01
KBWS 220525Z 00010G15KT 04/03 A301 RMK A01 T00440034  RH  095%=      5-min Rain = 0
KBWS 220530Z 01014KT 04/03 A3009 RMK A01 T00430033  RH  095%=      5-min Rain = 0
KBWS 220535Z 02013KT 04/03 A3009 RMK A01 T00420031  RH  094%=      5-min Rain = 0
KBWS 220540Z 03011G16KT 04/03 A301 RMK A01 T00410030  RH  094%=      5-min Rain = 0
KBWS 220545Z 03010KT 04/03 A301 RMK A01 T00420031  RH  094%=      5-min Rain = 0
KBWS 220550Z 03010KT 04/03 A3011 RMK A01 T00410030  RH  094%=      5-min Rain = 0
KBWS 220555Z 03005KT 04/03 A3012 RMK A01 T00420031  RH  094%=      5-min Rain = 0

Page generated in 0.0091 seconds.